KCCY/CCY METAR and TAF weather

Enter ICAO airport designator
Station Type Date Time Source
KCCY METAR 2019/10/15 19:35 UTC NOAA

KCCY 151935Z AUTO 30019G24KT 10SM FEW040 13/03 A2983 RMK AO2


Station Type Date Time Source
KCCY Decoded METAR 2019/10/15 19:35 UTC NOAA

Charles City, IA, United States (KCCY) 43-04N 092-37W
Oct 15, 2019 - 03:35 PM EDT / 2019.10.15 1935 UTC
Wind: from the WNW (300 degrees) at 22 MPH (19 KT) gusting to 28 MPH (24 KT):0
Visibility: 10 mile(s):0
Sky conditions: mostly clear
Temperature: 55 F (13 C)
Dew Point: 37 F (3 C)
Relative Humidity: 50%
Pressure (altimeter): 29.83 in. Hg (1010 hPa)
ob: KCCY 151935Z AUTO 30019G24KT 10SM FEW040 13/03 A2983 RMK AO2
cycle: 19

Station Type Date Time Source
KCCY TAF UTC NOAA

Error!

Example: see airport list